Thunder radar more information blitzortung!


Radar de pluja more information rain snow radar


Visita la nostra xarxa de llocs de meteo:

Template documentation
and downloads

And another site



No particular awareness of the weather is required.    There are no Weather-warnings

Pagina Historial Weather Underground text

Diari Resum February 3, 2018 Unitats:  Mètric    Imperial   Tant
« Previous Dia
SegĂźent Dia »
Diari Setmana Mensual Anual Personalitzada
  Maxima: Minima: Media:
Temperatura: -17.8 °C -17.3 °C -14.4 °C
Punt de rosada: -17.8 °C -22.9 °C -19.9 °C
Humitat: Humidity % 39 % 49 %
Wind Speed: 0 km/h 0 km/h 13.4 km/h
RĂ fegues de vent: 0 km/h - -
Vent:- - WSW
Pression baro: 0 hPa 34097 hPa -
Precipitacions: 0 mm    
Historical Graphs
 
 
Dades de taula per February 3, 2018
Temps Temperatura Punt de rosada Pression baro Vent Wind Speed RĂ fegues de vent Humitat Rainfall Rate (Hourly)
-17.8 °C -17.8 °C 0 hPa Calm     Humidity % 0 mm
00:03 -15.8 °C -22.2 °C 34130.9 hPa SSE 6 km/h 6 km/h 43 % 0 mm
00:08 -15.8 °C -22.2 °C 34130.9 hPa NNW 9.8 km/h 9.8 km/h 43 % 0 mm
00:13 -15.8 °C -22.2 °C 34130.9 hPa WNW 9.3 km/h 9.3 km/h 43 % 0 mm
00:18 -15.8 °C -22.2 °C 34130.9 hPa WSW 7.6 km/h 7.6 km/h 43 % 0 mm
00:23 -15.8 °C -22.1 °C 34130.9 hPa SW 6 km/h 6 km/h 43 % 0 mm
00:28 -15.7 °C -22.1 °C 34130.9 hPa NNW 6 km/h 6 km/h 43 % 0 mm
00:33 -15.7 °C -22.1 °C 34097 hPa WNW 6 km/h 6 km/h 43 % 0 mm
00:38 -15.7 °C -21.9 °C 34097 hPa WSW 9.3 km/h 9.3 km/h 44 % 0 mm
00:43 -15.7 °C -22.1 °C 34097 hPa SW 9 km/h 9 km/h 43 % 0 mm
00:48 -15.7 °C -22.1 °C 34130.9 hPa WSW 6 km/h 6.3 km/h 43 % 0 mm
00:53 -15.8 °C -22.1 °C 34130.9 hPa WSW 6 km/h 6.8 km/h 43 % 0 mm
01:03 -15.7 °C -22.3 °C 34130.9 hPa ESE 6 km/h 6 km/h 42 % 0 mm
01:08 -15.7 °C -22.1 °C 34130.9 hPa WNW 11.9 km/h 11.9 km/h 43 % 0 mm
01:13 -15.6 °C -21.9 °C 34130.9 hPa NNW 19.2 km/h 19.2 km/h 43 % 0 mm
01:18 -15.6 °C -22.1 °C 34130.9 hPa SW 11.9 km/h 11.9 km/h 42 % 0 mm
01:23 -15.4 °C -21.8 °C 34130.9 hPa WNW 19.6 km/h 19.6 km/h 43 % 0 mm
01:28 -15.4 °C -22 °C 34130.9 hPa West 20.9 km/h 20.9 km/h 42 % 0 mm
01:33 -15.4 °C -21.9 °C 34130.9 hPa SW 9 km/h 9.8 km/h 42 % 0 mm
01:38 -15.3 °C -22.1 °C 34130.9 hPa SW 17.9 km/h 17.9 km/h 41 % 0 mm
01:43 -15.3 °C -22.1 °C 34130.9 hPa West 9 km/h 10.3 km/h 41 % 0 mm
01:48 -15.4 °C -22.1 °C 34130.9 hPa West 12.2 km/h 12.2 km/h 41 % 0 mm
01:53 -15.4 °C -22.2 °C 34130.9 hPa WSW 9.8 km/h 9.8 km/h 41 % 0 mm
01:58 -15.5 °C -22.2 °C 34130.9 hPa WSW 10.3 km/h 10.3 km/h 41 % 0 mm
02:03 -15.5 °C -22.2 °C 34097 hPa West 15 km/h 15 km/h 41 % 0 mm
02:08 -15.6 °C -22.3 °C 34097 hPa WSW 15 km/h 15 km/h 41 % 0 mm
02:13 -15.6 °C -22.4 °C 34097 hPa West 6.3 km/h 11.1 km/h 40 % 0 mm
02:18 -15.6 °C -22.5 °C 34130.9 hPa WNW 9.8 km/h 9.8 km/h 40 % 0 mm
02:23 -15.6 °C -22.5 °C 34130.9 hPa WNW 9.8 km/h 9.8 km/h 40 % 0 mm
02:28 -15.7 °C -22.6 °C 34130.9 hPa WNW 9.8 km/h 9.8 km/h 40 % 0 mm
02:33 -15.7 °C -22.7 °C 34130.9 hPa WNW 9.8 km/h 9.8 km/h 39 % 0 mm
02:38 -15.7 °C -22.6 °C 34130.9 hPa WNW 9.8 km/h 9.8 km/h 40 % 0 mm
02:43 -15.8 °C -22.7 °C 34130.9 hPa WNW 9 km/h 9.3 km/h 40 % 0 mm
02:48 -15.9 °C -22.8 °C 34130.9 hPa West 8.5 km/h 8.5 km/h 40 % 0 mm
02:53 -16.1 °C -22.9 °C 34130.9 hPa West 9 km/h 9 km/h 40 % 0 mm
02:58 -16.1 °C -22.8 °C 34130.9 hPa WSW 6 km/h 6.8 km/h 41 % 0 mm
03:03 -16.1 °C -22.7 °C 34164.7 hPa West 9 km/h 9.3 km/h 41 % 0 mm
03:08 -16.1 °C -22.7 °C 34164.7 hPa WNW 17.9 km/h 17.9 km/h 41 % 0 mm
03:13 -16 °C -22.7 °C 34164.7 hPa West 9 km/h 9 km/h 41 % 0 mm
03:18 -16.1 °C -22.7 °C 34164.7 hPa WSW 7.6 km/h 8.5 km/h 41 % 0 mm
03:23 -16.1 °C -22.7 °C 34164.7 hPa WSW 9 km/h 9 km/h 41 % 0 mm
03:28 -15.9 °C -22.6 °C 34164.7 hPa WNW 15 km/h 15 km/h 41 % 0 mm
03:33 -15.8 °C -22.4 °C 34164.7 hPa West 9 km/h 9.3 km/h 41 % 0 mm
03:38 -15.8 °C -22.6 °C 34164.7 hPa SW 15 km/h 15 km/h 41 % 0 mm
03:43 -16 °C -22.7 °C 34164.7 hPa SW 6 km/h 6.3 km/h 41 % 0 mm
03:48 -16.1 °C -22.8 °C 34164.7 hPa SW 6 km/h 7.6 km/h 41 % 0 mm
03:53 -16.2 °C -22.9 °C 34164.7 hPa SW 9.3 km/h 9.3 km/h 41 % 0 mm
03:58 -16.3 °C -22.9 °C 34164.7 hPa West 9 km/h 9 km/h 41 % 0 mm
04:03 -16.4 °C -22.8 °C 34164.7 hPa WSW 6.3 km/h 6.8 km/h 42 % 0 mm
04:08 -16.4 °C -22.9 °C 34164.7 hPa West 6.3 km/h 6.3 km/h 42 % 0 mm
04:13 -16.5 °C -22.9 °C 34164.7 hPa WSW 7.6 km/h 8 km/h 42 % 0 mm
04:18 -16.5 °C -22.9 °C 34198.6 hPa West 7.6 km/h 7.6 km/h 42 % 0 mm
04:23 -16.2 °C -22.7 °C 34198.6 hPa West 7.6 km/h 7.6 km/h 42 % 0 mm
04:28 -16.2 °C -22.7 °C 34198.6 hPa West 7.6 km/h 7.6 km/h 42 % 0 mm
04:33 -16.2 °C -22.5 °C 34198.6 hPa SW 4.2 km/h 11.1 km/h 43 % 0 mm
04:38 -16.2 °C -22.6 °C 34198.6 hPa WNW 15.6 km/h 15.6 km/h 43 % 0 mm
04:43 -16.2 °C -22.6 °C 34198.6 hPa West 3.7 km/h 5.6 km/h 43 % 0 mm
04:48 -16.2 °C -22.4 °C 34198.6 hPa West 3.7 km/h 5.6 km/h 44 % 0 mm
04:53 -16.2 °C -22.4 °C 34198.6 hPa West 3.7 km/h 5.6 km/h 44 % 0 mm
04:58 -16.3 °C -22.4 °C 34198.6 hPa WNW 11.9 km/h 11.9 km/h 44 % 0 mm
05:03 -16.3 °C -22.4 °C 34198.6 hPa WNW 9 km/h 9 km/h 44 % 0 mm
05:08 -16.3 °C -22.3 °C 34198.6 hPa WNW 9 km/h 9 km/h 45 % 0 mm
05:13 -16.4 °C -22.4 °C 34198.6 hPa WSW 15 km/h 15 km/h 45 % 0 mm
05:18 -16.4 °C -22.4 °C 34198.6 hPa WSW 9 km/h 9 km/h 45 % 0 mm
05:23 -16.5 °C -22.4 °C 34198.6 hPa WSW 6 km/h 8 km/h 45 % 0 mm
05:28 -16.5 °C -22.4 °C 34198.6 hPa West 6 km/h 6 km/h 45 % 0 mm
05:33 -16.4 °C -22.3 °C 34198.6 hPa West 15 km/h 15 km/h 46 % 0 mm
05:38 -16.4 °C -22.3 °C 34198.6 hPa West 9 km/h 9 km/h 46 % 0 mm
05:43 -16.6 °C -22.3 °C 34198.6 hPa WNW 9 km/h 9 km/h 46 % 0 mm
05:48 -16.6 °C -22.3 °C 34198.6 hPa WSW 6.8 km/h 6.8 km/h 46 % 0 mm
05:53 -16.7 °C -22.4 °C 34198.6 hPa WSW 9 km/h 9 km/h 46 % 0 mm
05:58 -16.7 °C -22.5 °C 34198.6 hPa SW 6 km/h 6 km/h 46 % 0 mm
06:03 -16.7 °C -22.5 °C 34198.6 hPa ENE 6.3 km/h 6.3 km/h 46 % 0 mm
06:08 -16.7 °C -22.5 °C 34198.6 hPa Calm     46 % 0 mm
06:13 -16.7 °C -22.4 °C 34198.6 hPa WSW 11.9 km/h 11.9 km/h 46 % 0 mm
06:18 -16.6 °C -22.3 °C 34164.7 hPa WSW 8.5 km/h 8.5 km/h 47 % 0 mm
06:23 -16.7 °C -22.3 °C 34164.7 hPa WSW 7.6 km/h 7.6 km/h 47 % 0 mm
06:28 -16.6 °C -22.3 °C 34164.7 hPa WSW 9 km/h 9 km/h 47 % 0 mm
06:33 -16.6 °C -22.3 °C 34198.6 hPa West 5.1 km/h   47 % 0 mm
06:38 -16.7 °C -22.4 °C 34198.6 hPa Calm     46 % 0 mm
06:43 -16.7 °C -22.4 °C 34198.6 hPa West 3.1 km/h 3.1 km/h 46 % 0 mm
06:48 -16.7 °C -22.4 °C 34198.6 hPa NW 4.2 km/h   46 % 0 mm
06:53 -16.7 °C -22.3 °C 34198.6 hPa NNE 3.1 km/h 3.7 km/h 47 % 0 mm
06:58 -16.8 °C -22.4 °C 34198.6 hPa NW 3.1 km/h   47 % 0 mm
07:03 -16.8 °C -22.4 °C 34198.6 hPa NW 3.1 km/h 3.1 km/h 47 % 0 mm
07:08 -16.9 °C -22.5 °C 34198.6 hPa Calm     47 % 0 mm
07:13 -17 °C -22.6 °C 34198.6 hPa ENE 6.3 km/h 6.3 km/h 47 % 0 mm
07:18 -17.1 °C -22.7 °C 34198.6 hPa Calm     47 % 0 mm
07:23 -17.1 °C -22.5 °C 34198.6 hPa NE 6.3 km/h 6.3 km/h 48 % 0 mm
07:28 -17.2 °C -22.6 °C 34198.6 hPa NE 6 km/h 6 km/h 48 % 0 mm
07:33 -17.2 °C -22.7 °C 34222.3 hPa NNW 3.1 km/h 3.1 km/h 48 % 0 mm
07:38 -17.2 °C -22.7 °C 34222.3 hPa WSW 6.3 km/h   48 % 0 mm
07:43 -17.2 °C -22.7 °C 34222.3 hPa SW 6 km/h 6 km/h 48 % 0 mm
07:48 -17.3 °C -22.7 °C 34222.3 hPa WSW 6 km/h 6 km/h 48 % 0 mm
07:53 -17.2 °C -22.4 °C 34222.3 hPa NNW 17.9 km/h 17.9 km/h 49 % 0 mm
07:58 -17 °C -22.3 °C 34222.3 hPa NW 15 km/h 15 km/h 49 % 0 mm
08:03 -16.9 °C -22.2 °C 34222.3 hPa WSW 18.3 km/h 18.3 km/h 49 % 0 mm
08:08 -16.8 °C -22.1 °C 34222.3 hPa WSW 9 km/h 9 km/h 49 % 0 mm
08:13 -16.7 °C -22.1 °C 34222.3 hPa SW 9 km/h 9 km/h 49 % 0 mm
08:18 -16.7 °C -22 °C 34256.2 hPa WNW 3.1 km/h 3.1 km/h 49 % 0 mm
08:23 -16.6 °C -21.9 °C 34256.2 hPa SE 6.8 km/h 6.8 km/h 49 % 0 mm
08:28 -16.4 °C -21.8 °C 34256.2 hPa ENE 6.8 km/h 6.8 km/h 49 % 0 mm
08:33 -16.3 °C -21.7 °C 34256.2 hPa West 9 km/h 9 km/h 49 % 0 mm
08:38 -16.1 °C -21.5 °C 34256.2 hPa NE 6.3 km/h   49 % 0 mm
08:43 -16.1 °C -21.4 °C 34256.2 hPa WSW 3.7 km/h 3.7 km/h 49 % 0 mm
08:48 -16.1 °C -21.4 °C 34256.2 hPa NW 6.3 km/h 6.3 km/h 49 % 0 mm
08:53 -16 °C -21.4 °C 34256.2 hPa NW 6 km/h 6 km/h 49 % 0 mm
08:58 -15.9 °C -21.3 °C 34256.2 hPa NNW 11.9 km/h 11.9 km/h 49 % 0 mm
09:03 -15.8 °C -21.2 °C 34256.2 hPa WSW 10.3 km/h 10.3 km/h 49 % 0 mm
09:08 -15.7 °C -21.2 °C 34256.2 hPa WNW 7.6 km/h 7.6 km/h 49 % 0 mm
09:13 -15.6 °C -21 °C 34256.2 hPa WSW 11.9 km/h 11.9 km/h 49 % 0 mm
09:18 -15.5 °C -20.9 °C 34256.2 hPa NW 10.3 km/h 10.3 km/h 49 % 0 mm
09:23 -15.4 °C -20.9 °C 34256.2 hPa WNW 11.9 km/h 11.9 km/h 49 % 0 mm
09:28 -15.2 °C -20.7 °C 34256.2 hPa West 11.9 km/h 11.9 km/h 49 % 0 mm
09:33 -15.2 °C -20.6 °C 34256.2 hPa WSW 17.9 km/h 17.9 km/h 49 % 0 mm
09:38 -15.1 °C -20.6 °C 34256.2 hPa WNW 15.6 km/h 15.6 km/h 49 % 0 mm
09:43 -14.9 °C -20.2 °C 34256.2 hPa West 9 km/h 9 km/h 50 % 0 mm
09:48 -14.8 °C -20.2 °C 34256.2 hPa NW 10.3 km/h 10.3 km/h 50 % 0 mm
09:53 -14.7 °C -20 °C 34256.2 hPa West 6 km/h 6 km/h 50 % 0 mm
09:58 -14.6 °C -19.9 °C 34256.2 hPa WSW 23.8 km/h 23.8 km/h 50 % 0 mm
10:03 -14.4 °C -19.8 °C 34256.2 hPa West 6 km/h 6 km/h 50 % 0 mm
10:08 -14.5 °C -19.8 °C 34256.2 hPa WNW 17.9 km/h 17.9 km/h 50 % 0 mm
10:13 -14.3 °C -19.7 °C 34256.2 hPa West 9 km/h 9 km/h 50 % 0 mm
10:18 -14.2 °C -19.6 °C 34256.2 hPa West 17.9 km/h 17.9 km/h 50 % 0 mm
10:24 -14.1 °C -19.5 °C 34256.2 hPa West 23.8 km/h 23.8 km/h 50 % 0 mm
10:29 -14.1 °C -19.6 °C 34256.2 hPa West 17.9 km/h 17.9 km/h 49 % 0 mm
10:34 -14.1 °C -19.6 °C 34256.2 hPa SSW 20.9 km/h 20.9 km/h 49 % 0 mm
10:39 -14.1 °C -19.6 °C 34256.2 hPa West 26.9 km/h 26.9 km/h 49 % 0 mm
10:44 -13.9 °C -19.5 °C 34293.4 hPa WSW 15.3 km/h 15.3 km/h 49 % 0 mm
10:49 -13.8 °C -19.4 °C 34293.4 hPa SW 26.9 km/h 26.9 km/h 49 % 0 mm
10:54 -13.8 °C -19.3 °C 34293.4 hPa NW 19.2 km/h 19.2 km/h 49 % 0 mm
10:59 -13.9 °C -19.4 °C 34293.4 hPa West 27.2 km/h 27.2 km/h 49 % 0 mm
11:04 -13.9 °C -19.3 °C 34293.4 hPa West 11.9 km/h 16.1 km/h 50 % 0 mm
11:09 -14.1 °C -19.4 °C 34293.4 hPa WNW 17.9 km/h 17.9 km/h 50 % 0 mm
11:14 -14 °C -19.4 °C 34293.4 hPa WSW 17.9 km/h 17.9 km/h 50 % 0 mm
11:19 -14 °C -19.4 °C 34293.4 hPa SSW 20.9 km/h 20.9 km/h 50 % 0 mm
11:24 -13.9 °C -19.3 °C 34293.4 hPa WSW 20.9 km/h 20.9 km/h 50 % 0 mm
11:29 -13.9 °C -19.3 °C 34256.2 hPa West 20.9 km/h 20.9 km/h 50 % 0 mm
11:34 -13.8 °C -19.2 °C 34256.2 hPa SW 17.9 km/h 17.9 km/h 50 % 0 mm
11:39 -13.7 °C -19.1 °C 34256.2 hPa NW 20.9 km/h 20.9 km/h 50 % 0 mm
11:44 -13.6 °C -19 °C 34256.2 hPa West 20.9 km/h 20.9 km/h 50 % 0 mm
11:49 -13.6 °C -19 °C 34256.2 hPa WSW 23.8 km/h 23.8 km/h 50 % 0 mm
11:54 -13.4 °C -18.9 °C 34256.2 hPa SSW 20.9 km/h 20.9 km/h 50 % 0 mm
11:59 -13.4 °C -18.8 °C 34256.2 hPa WSW 20.9 km/h 20.9 km/h 50 % 0 mm
12:04 -13.3 °C -18.8 °C 34256.2 hPa WSW 25.4 km/h 25.4 km/h 50 % 0 mm
12:09 -13.7 °C -19.1 °C 34256.2 hPa WSW 20.9 km/h 20.9 km/h 50 % 0 mm
12:14 -13.7 °C -19.1 °C 34256.2 hPa SW 26.9 km/h 26.9 km/h 50 % 0 mm
12:19 -13.7 °C -19.1 °C 34256.2 hPa WNW 35.7 km/h 35.7 km/h 50 % 0 mm
12:24 -13.7 °C -19.1 °C 34256.2 hPa WNW 35.7 km/h 35.7 km/h 50 % 0 mm
12:29 -13.6 °C -19.1 °C 34256.2 hPa WSW 23.8 km/h 23.8 km/h 50 % 0 mm
12:34 -13.6 °C -19.1 °C 34256.2 hPa West 38.8 km/h 38.8 km/h 50 % 0 mm
12:39 -13.4 °C -18.8 °C 34256.2 hPa WSW 23.8 km/h 23.8 km/h 50 % 0 mm
12:44 -13.3 °C -18.8 °C 34222.3 hPa WSW 41.7 km/h 41.7 km/h 50 % 0 mm
12:49 -13.3 °C -18.7 °C 34222.3 hPa SW 26.9 km/h 26.9 km/h 50 % 0 mm
12:54 -13.2 °C -18.7 °C 34222.3 hPa West 32.8 km/h 32.8 km/h 50 % 0 mm
12:59 -13.1 °C -18.5 °C 34256.2 hPa WNW 32.8 km/h 32.8 km/h 50 % 0 mm
13:04 -13.1 °C -18.7 °C 34256.2 hPa NW 15.3 km/h 15.3 km/h 49 % 0 mm
13:09 -13.2 °C -18.8 °C 34256.2 hPa West 20.9 km/h 20.9 km/h 49 % 0 mm
13:14 -13.3 °C -18.9 °C 34222.3 hPa WSW 17.9 km/h 17.9 km/h 49 % 0 mm
13:19 -13.4 °C -19.1 °C 34222.3 hPa WSW 15 km/h 15 km/h 49 % 0 mm
13:24 -13.4 °C -18.9 °C 34222.3 hPa West 15 km/h 15 km/h 50 % 0 mm
13:29 -13.5 °C -18.9 °C 34256.2 hPa WSW 11.9 km/h 11.9 km/h 50 % 0 mm
13:34 -13.5 °C -18.9 °C 34256.2 hPa West 15 km/h 15 km/h 50 % 0 mm
13:39 -13.3 °C -18.7 °C 34256.2 hPa WSW 15 km/h 15 km/h 50 % 0 mm
13:44 -12.9 °C -18.2 °C 34256.2 hPa WSW 11.9 km/h 11.9 km/h 51 % 0 mm
13:49 -12.8 °C -18.2 °C 34256.2 hPa NNW 9 km/h 9 km/h 51 % 0 mm
13:54 -12.9 °C -18.2 °C 34256.2 hPa West 9 km/h 9 km/h 51 % 0 mm
13:59 -12.9 °C -18.2 °C 34222.3 hPa SSW 15 km/h 15 km/h 51 % 0 mm
14:04 -12.9 °C -18.3 °C 34222.3 hPa WSW 15 km/h 15 km/h 51 % 0 mm
14:09 -12.9 °C -18.4 °C 34222.3 hPa WNW 26.9 km/h 26.9 km/h 50 % 0 mm
14:14 -12.9 °C -18.4 °C 34198.6 hPa WSW 15 km/h 15 km/h 50 % 0 mm
14:19 -12.8 °C -18.1 °C 34198.6 hPa West 26.9 km/h 26.9 km/h 51 % 0 mm
14:24 -12.7 °C -18 °C 34198.6 hPa WNW 11.9 km/h 11.9 km/h 51 % 0 mm
14:29 -12.7 °C -18.2 °C 34198.6 hPa WNW 20.9 km/h 20.9 km/h 50 % 0 mm
14:34 -12.7 °C -18.2 °C 34198.6 hPa WSW 23.8 km/h 23.8 km/h 50 % 0 mm
14:39 -12.7 °C -18.2 °C 34198.6 hPa West 17.9 km/h 17.9 km/h 50 % 0 mm
14:44 -12.7 °C -18.2 °C 34198.6 hPa WSW 15.6 km/h 15.6 km/h 50 % 0 mm
14:49 -12.8 °C -18.3 °C 34198.6 hPa WSW 11.9 km/h 11.9 km/h 50 % 0 mm
14:54 -12.7 °C -18.2 °C 34198.6 hPa WSW 20.9 km/h 20.9 km/h 50 % 0 mm
14:59 -12.7 °C -18.2 °C 34198.6 hPa SW 20.9 km/h 20.9 km/h 50 % 0 mm
15:04 -12.6 °C -18.1 °C 34198.6 hPa WSW 16.6 km/h 16.6 km/h 50 % 0 mm
15:09 -12.6 °C -17.9 °C 34198.6 hPa SSW 20.9 km/h 20.9 km/h 51 % 0 mm
15:14 -12.5 °C -17.9 °C 34198.6 hPa West 24.3 km/h 24.3 km/h 51 % 0 mm
15:19 -12.4 °C -17.8 °C 34198.6 hPa WSW 25.1 km/h 25.1 km/h 51 % 0 mm
15:24 -12.4 °C -17.8 °C 34198.6 hPa WSW 20.9 km/h 20.9 km/h 51 % 0 mm
15:29 -12.4 °C -17.8 °C 34164.7 hPa West 15 km/h 15 km/h 51 % 0 mm
15:34 -12.4 °C -17.8 °C 34164.7 hPa SSW 15 km/h 15 km/h 51 % 0 mm
15:39 -12.4 °C -17.8 °C 34164.7 hPa West 20.9 km/h 20.9 km/h 51 % 0 mm
15:44 -12.4 °C -17.7 °C 34164.7 hPa NNW 11.9 km/h 11.9 km/h 51 % 0 mm
15:49 -12.4 °C -17.7 °C 34164.7 hPa SSW 20.9 km/h 20.9 km/h 51 % 0 mm
15:54 -12.3 °C -17.7 °C 34164.7 hPa West 11.9 km/h 11.9 km/h 51 % 0 mm
15:59 -12.2 °C -17.6 °C 34164.7 hPa SW 9 km/h 9 km/h 51 % 0 mm
16:04 -12.1 °C -17.7 °C 34164.7 hPa WSW 20.9 km/h 20.9 km/h 50 % 0 mm
16:09 -11.9 °C -17.3 °C 34164.7 hPa WSW 15 km/h 15 km/h 51 % 0 mm
16:14 -11.8 °C -17.3 °C 34164.7 hPa WSW 17.9 km/h 17.9 km/h 51 % 0 mm
16:19 -11.7 °C -17.3 °C 34164.7 hPa SW 23.8 km/h 23.8 km/h 50 % 0 mm
16:24 -11.6 °C -17.2 °C 34164.7 hPa West 15 km/h 15 km/h 50 % 0 mm
16:29 -11.7 °C -17.3 °C 34164.7 hPa SW 11.9 km/h 11.9 km/h 50 % 0 mm
16:34 -11.6 °C -17.2 °C 34164.7 hPa NW 17.9 km/h 17.9 km/h 50 % 0 mm
16:39 -11.6 °C -17.2 °C 34164.7 hPa West 12.7 km/h 12.7 km/h 50 % 0 mm
16:44 -11.6 °C -17.1 °C 34164.7 hPa WNW 11.9 km/h 11.9 km/h 50 % 0 mm
16:49 -11.6 °C -17.2 °C 34164.7 hPa SSW 20.9 km/h 20.9 km/h 50 % 0 mm
16:54 -11.6 °C -17.2 °C 34164.7 hPa West 15 km/h 15 km/h 50 % 0 mm
16:59 -11.7 °C -17.4 °C 34130.9 hPa West 17.9 km/h 17.9 km/h 49 % 0 mm
17:04 -11.7 °C -17.4 °C 34130.9 hPa WSW 20.9 km/h 20.9 km/h 49 % 0 mm
17:09 -11.7 °C -17.4 °C 34130.9 hPa West 25.1 km/h 25.1 km/h 49 % 0 mm
17:14 -11.8 °C -17.7 °C 34164.7 hPa WSW 20.9 km/h 20.9 km/h 48 % 0 mm
17:19 -11.8 °C -17.5 °C 34164.7 hPa WSW 17.9 km/h 17.9 km/h 49 % 0 mm
17:24 -11.8 °C -17.6 °C 34164.7 hPa WSW 15.3 km/h 15.3 km/h 49 % 0 mm
17:29 -11.9 °C -17.6 °C 34130.9 hPa SSW 9 km/h 9 km/h 49 % 0 mm
17:34 -11.9 °C -17.7 °C 34130.9 hPa SW 11.9 km/h 11.9 km/h 49 % 0 mm
17:39 -12 °C -17.7 °C 34130.9 hPa SSW 15 km/h 15 km/h 49 % 0 mm
17:44 -12.2 °C -17.9 °C 34164.7 hPa SW 17.9 km/h 17.9 km/h 49 % 0 mm
17:49 -12.3 °C -17.9 °C 34164.7 hPa SSW 11.9 km/h 11.9 km/h 49 % 0 mm
17:54 -12.3 °C -18 °C 34164.7 hPa WNW 17.9 km/h 17.9 km/h 49 % 0 mm
17:59 -12.3 °C -18 °C 34164.7 hPa West 15 km/h 15 km/h 49 % 0 mm
18:04 -12.4 °C -18.1 °C 34164.7 hPa WSW 15 km/h 15 km/h 49 % 0 mm
18:09 -12.5 °C -18.2 °C 34164.7 hPa West 15 km/h 15 km/h 49 % 0 mm
18:14 -12.6 °C -18.2 °C 34164.7 hPa WSW 9 km/h 9 km/h 49 % 0 mm
18:19 -12.7 °C -18.3 °C 34164.7 hPa WSW 12.7 km/h 12.7 km/h 49 % 0 mm
18:24 -12.7 °C -18.3 °C 34164.7 hPa WNW 9 km/h 9 km/h 49 % 0 mm
18:29 -12.7 °C -18.4 °C 34164.7 hPa SW 15 km/h 15 km/h 49 % 0 mm
18:34 -12.7 °C -18.4 °C 34164.7 hPa West 22 km/h 22 km/h 49 % 0 mm
18:39 -12.8 °C -18.3 °C 34164.7 hPa West 15 km/h 15 km/h 50 % 0 mm
18:44 -12.8 °C -18.3 °C 34164.7 hPa WSW 15.6 km/h 15.6 km/h 50 % 0 mm
18:49 -12.8 °C -18.3 °C 34164.7 hPa WSW 11.9 km/h 11.9 km/h 50 % 0 mm
18:54 -12.9 °C -18.4 °C 34164.7 hPa SW 11.9 km/h 11.9 km/h 50 % 0 mm
18:59 -12.9 °C -18.4 °C 34164.7 hPa WNW 11.9 km/h 11.9 km/h 50 % 0 mm
19:04 -12.9 °C -18.4 °C 34164.7 hPa WSW 15 km/h 15 km/h 50 % 0 mm
19:09 -12.9 °C -18.4 °C 34164.7 hPa WSW 15 km/h 15 km/h 50 % 0 mm
19:14 -13 °C -18.5 °C 34164.7 hPa WSW 9 km/h 9 km/h 50 % 0 mm
19:19 -13 °C -18.5 °C 34164.7 hPa WSW 11.1 km/h 11.1 km/h 50 % 0 mm
19:24 -13.1 °C -18.5 °C 34164.7 hPa WSW 15 km/h 15 km/h 50 % 0 mm
19:29 -13.1 °C -18.4 °C 34164.7 hPa West 11.9 km/h 11.9 km/h 51 % 0 mm
19:34 -13.1 °C -18.4 °C 34164.7 hPa WNW 11.9 km/h 11.9 km/h 51 % 0 mm
19:39 -13.1 °C -18.4 °C 34164.7 hPa WSW 11.9 km/h 11.9 km/h 51 % 0 mm
19:44 -13.2 °C -18.5 °C 34164.7 hPa West 15 km/h 15 km/h 51 % 0 mm
19:49 -13.2 °C -18.5 °C 34164.7 hPa West 11.9 km/h 11.9 km/h 51 % 0 mm
19:54 -13.2 °C -18.5 °C 34164.7 hPa WSW 11.9 km/h 11.9 km/h 51 % 0 mm
19:59 -13.2 °C -18.5 °C 34198.6 hPa West 17.9 km/h 17.9 km/h 51 % 0 mm
20:04 -13.2 °C -18.5 °C 34198.6 hPa SSW 11.9 km/h 11.9 km/h 51 % 0 mm
20:09 -13.3 °C -18.4 °C 34198.6 hPa SW 15 km/h 15 km/h 52 % 0 mm
20:14 -13.2 °C -18.4 °C 34198.6 hPa WSW 17.9 km/h 17.9 km/h 52 % 0 mm
20:19 -13.2 °C -18.4 °C 34198.6 hPa WSW 20.9 km/h 20.9 km/h 52 % 0 mm
20:24 -13.3 °C -18.4 °C 34198.6 hPa SSW 12.2 km/h 12.2 km/h 52 % 0 mm
20:29 -13.2 °C -18.4 °C 34198.6 hPa WSW 15 km/h 15 km/h 52 % 0 mm
20:34 -13.3 °C -18.5 °C 34198.6 hPa WNW 15 km/h 15 km/h 52 % 0 mm
20:39 -13.3 °C -18.3 °C 34198.6 hPa WSW 26.9 km/h 26.9 km/h 53 % 0 mm
20:44 -13.3 °C -18.3 °C 34164.7 hPa WSW 15 km/h 15 km/h 53 % 0 mm
20:49 -13.3 °C -18.3 °C 34164.7 hPa WSW 15 km/h 15 km/h 53 % 0 mm
20:54 -13.2 °C -18.1 °C 34164.7 hPa West 38.8 km/h 38.8 km/h 54 % 0 mm
20:59 -13.2 °C -18.1 °C 34164.7 hPa West 23.8 km/h 23.8 km/h 54 % 0 mm
21:04 -13.2 °C -17.9 °C 34164.7 hPa SSW 15 km/h 15 km/h 55 % 0 mm
21:09 -13.3 °C -18 °C 34164.7 hPa West 28.2 km/h 28.2 km/h 55 % 0 mm
21:14 -13.2 °C -17.9 °C 34164.7 hPa West 23.8 km/h 23.8 km/h 55 % 0 mm
21:19 -13.3 °C -17.9 °C 34164.7 hPa SSW 15.3 km/h 15.3 km/h 56 % 0 mm
21:24 -13.3 °C -17.9 °C 34164.7 hPa SSW 20.9 km/h 20.9 km/h 56 % 0 mm
21:29 -13.3 °C -17.9 °C 34164.7 hPa WNW 11.9 km/h 11.9 km/h 56 % 0 mm
21:34 -13.4 °C -17.9 °C 34164.7 hPa WSW 20.9 km/h 20.9 km/h 56 % 0 mm
21:39 -13.4 °C -17.9 °C 34164.7 hPa WSW 11.9 km/h 11.9 km/h 56 % 0 mm
21:44 -13.4 °C -18 °C 34164.7 hPa WSW 15 km/h 15 km/h 56 % 0 mm
21:49 -13.4 °C -18 °C 34164.7 hPa WSW 15 km/h 15 km/h 56 % 0 mm
21:54 -13.6 °C -18.1 °C 34164.7 hPa SSW 6 km/h 6 km/h 56 % 0 mm
21:59 -13.6 °C -18 °C 34164.7 hPa WSW 9 km/h 9 km/h 57 % 0 mm
22:04 -13.6 °C -18.1 °C 34164.7 hPa West 6 km/h 6 km/h 57 % 0 mm
22:09 -13.6 °C -18.1 °C 34164.7 hPa WSW 9 km/h 9 km/h 57 % 0 mm
22:14 -13.6 °C -18.1 °C 34164.7 hPa West 9 km/h 9 km/h 57 % 0 mm
22:19 -13.7 °C -18.2 °C 34164.7 hPa SW 6 km/h 6 km/h 57 % 0 mm
22:24 -13.8 °C -18.1 °C 34164.7 hPa South 3.1 km/h 3.1 km/h 58 % 0 mm
22:29 -13.8 °C -18.1 °C 34198.6 hPa West 6 km/h 6 km/h 58 % 0 mm
22:34 -13.7 °C -18 °C 34198.6 hPa WSW 9 km/h 9 km/h 58 % 0 mm
22:39 -13.7 °C -17.9 °C 34198.6 hPa WSW 15 km/h 15 km/h 58 % 0 mm
22:44 -13.7 °C -18 °C 34164.7 hPa WNW 11.9 km/h 11.9 km/h 58 % 0 mm
22:49 -13.8 °C -18.1 °C 34164.7 hPa WSW 6.3 km/h 6.3 km/h 58 % 0 mm
22:54 -13.8 °C -18.1 °C 34164.7 hPa WSW 6.8 km/h 6.8 km/h 58 % 0 mm
22:59 -13.8 °C -18.1 °C 34198.6 hPa West 10.3 km/h 10.3 km/h 58 % 0 mm
23:04 -13.8 °C -18.1 °C 34198.6 hPa West 15 km/h 15 km/h 58 % 0 mm
23:09 -13.9 °C -18.1 °C 34198.6 hPa SW 11.9 km/h 11.9 km/h 59 % 0 mm
23:14 -13.9 °C -18.1 °C 34164.7 hPa West 9 km/h 9 km/h 59 % 0 mm
23:19 -13.9 °C -17.9 °C 34164.7 hPa SW 6 km/h 6 km/h 60 % 0 mm
23:24 -13.9 °C -18.1 °C 34164.7 hPa WSW 11.9 km/h 11.9 km/h 59 % 0 mm
23:29 -13.9 °C -17.9 °C 34198.6 hPa WSW 6.8 km/h 6.8 km/h 60 % 0 mm
23:34 -14.1 °C -18.1 °C 34198.6 hPa WSW 9 km/h 9 km/h 60 % 0 mm
23:39 -14 °C -18 °C 34198.6 hPa WNW 9 km/h 9 km/h 60 % 0 mm
23:44 -14 °C -18 °C 34164.7 hPa WNW 9 km/h 9 km/h 60 % 0 mm
23:49 -14 °C -18 °C 34164.7 hPa West 9 km/h 9 km/h 60 % 0 mm
23:54 -14 °C -18 °C 34164.7 hPa WSW 11.9 km/h 11.9 km/h 60 % 0 mm
23:59 -13.9 °C -17.8 °C 34198.6 hPa WSW 6.8 km/h 6.8 km/h 61 % 0 mm
Meteo Sesrovires
Elogis d' Weather Underground - 1.75 mb

Guio original per  Jim McMurry - jmcmurry@mwt.net Adaptat per a la plantilla per  Wim van der Kuil - Leuven-Template.eu

Trobareu la nostra informacio del temps tambe a:

Weather Underground

AWEKAS